Terminal Aerodrome Forecast
Issued by NWS Shreveport, LA

Home | Current Version | Previous Version | Text Only | Print | Product List | Glossary On
Versions: 1 2 3 4 5 6 7 8 9 10 11 12 13 14 15 16 17 18
164
FTUS44 KSHV 272328
TAFELD
TAF
KELD 272328Z 2800/2824 VRB04KT P6SM BKN040
      TEMPO 2800/2804 22012G18KT
     FM281000 09005KT 4SM BR BKN015
      TEMPO 2811/2814 1SM BR OVC005
     FM281500 12006KT P6SM SCT030
      TEMPO 2815/2817 BKN025=

USA.gov is the U.S. government's official web portal to all federal, state and local government web resources and services.